Bowen, Kentucky
Current Conditions -  °F | °C
As of 5:55 PM on Friday 28 Nov 2014 (Local Time) from KIOB Reporting Station
Clear Clear  
Wind Chill: 26°   Ceiling: Unl
Heat Index: 32°   Visibility: 10mi
Dew Point: 19°   Wind: 6mph
Humidity: 60%   Direction: 170°S
Pressure: 30.23"   Gusts: NA
Location:  37.84°N, 83.77°W
Report Text: KIOB 282255Z AUTO 17005KT 10SM CLR 00/M07 A3023 RMK AO2
Loading
Personal Weather Stations






























Interactive Weather Map New forecast layout! Learn more

10-Day Weather Forecast

Advertisements
Track Severe Weather on mobile